createdAt,value
2023-04-02T00:01:19.272Z,101472.66
2023-04-02T00:03:46.010Z,101483.19
2023-04-02T00:06:32.852Z,101487.63
2023-04-02T00:09:29.654Z,101492.38
2023-04-02T00:11:57.152Z,101488.06
2023-04-02T00:14:34.279Z,101494.03
2023-04-02T00:17:04.580Z,101495.28
2023-04-02T00:19:37.172Z,101497.94
2023-04-02T00:22:07.624Z,101501.81
2023-04-02T00:24:34.145Z,101499.88
2023-04-02T00:27:00.985Z,101500.16
2023-04-02T00:29:27.557Z,101516.78
2023-04-02T00:31:54.729Z,101510.00
2023-04-02T00:34:26.106Z,101524.00
2023-04-02T00:36:53.506Z,101523.88
2023-04-02T00:39:24.197Z,101534.56
2023-04-02T00:41:54.704Z,101535.41
2023-04-02T00:44:22.293Z,101535.00
2023-04-02T00:46:50.079Z,101548.19
2023-04-02T00:49:22.763Z,101552.59
2023-04-02T00:52:00.432Z,101555.41
2023-04-02T00:54:31.247Z,101558.31
2023-04-02T00:56:58.819Z,101560.94
2023-04-02T00:59:31.835Z,101568.84
2023-04-02T01:02:26.507Z,101576.06
2023-04-02T01:05:16.671Z,101582.44
2023-04-02T01:07:55.835Z,101587.59
2023-04-02T01:10:43.790Z,101591.19
2023-04-02T01:13:24.246Z,101603.69
2023-04-02T01:16:02.757Z,101593.41
2023-04-02T01:19:01.934Z,101609.94
2023-04-02T01:21:37.025Z,101610.03
2023-04-02T01:24:07.239Z,101605.03
2023-04-02T01:26:54.646Z,101608.38
2023-04-02T01:29:33.306Z,101621.72
2023-04-02T01:32:06.641Z,101620.31
2023-04-02T01:34:33.775Z,101621.28
2023-04-02T01:37:22.301Z,101628.78
2023-04-02T01:39:55.352Z,101629.03
2023-04-02T01:42:37.758Z,101641.13
2023-04-02T01:45:13.969Z,101641.41
2023-04-02T01:47:41.144Z,101650.00
2023-04-02T01:50:21.992Z,101648.63
2023-04-02T01:52:52.364Z,101652.34
2023-04-02T01:55:25.316Z,101656.88
2023-04-02T01:57:54.221Z,101665.22
2023-04-02T02:00:22.380Z,101673.81
2023-04-02T02:02:51.686Z,101672.41
2023-04-02T02:05:23.414Z,101678.66
2023-04-02T02:07:52.130Z,101690.88
2023-04-02T02:10:26.193Z,101693.78
2023-04-02T02:12:53.249Z,101691.78
2023-04-02T02:15:22.572Z,101692.63
2023-04-02T02:17:50.258Z,101693.16
2023-04-02T02:20:17.885Z,101701.44
2023-04-02T02:22:47.086Z,101709.75
2023-04-02T02:25:24.241Z,101715.56
2023-04-02T02:28:08.139Z,101717.06
2023-04-02T02:30:44.873Z,101719.94
2023-04-02T02:33:22.535Z,101732.53
2023-04-02T02:36:00.725Z,101732.94
2023-04-02T02:38:30.377Z,101731.25
2023-04-02T02:41:13.344Z,101745.75
2023-04-02T02:43:44.782Z,101744.75
2023-04-02T02:46:16.698Z,101754.56
2023-04-02T02:48:44.526Z,101751.50
2023-04-02T02:51:21.045Z,101763.84
2023-04-02T02:53:52.780Z,101771.84
2023-04-02T02:56:22.911Z,101779.28
2023-04-02T02:58:52.336Z,101781.81
2023-04-02T03:01:19.024Z,101789.56
2023-04-02T03:03:47.789Z,101787.88
2023-04-02T03:06:16.797Z,101799.13
2023-04-02T03:09:10.873Z,101813.25
2023-04-02T03:11:44.564Z,101806.47
2023-04-02T03:14:22.409Z,101806.00
2023-04-02T03:16:55.312Z,101819.03
2023-04-02T03:19:33.331Z,101826.91
2023-04-02T03:22:08.439Z,101834.09
2023-04-02T03:24:42.852Z,101828.84
2023-04-02T03:27:09.235Z,101845.22
2023-04-02T03:29:41.542Z,101844.88
2023-04-02T03:32:22.265Z,101853.16
2023-04-02T03:34:55.028Z,101854.84
2023-04-02T03:37:28.594Z,101867.13
2023-04-02T03:39:57.942Z,101873.38
2023-04-02T03:42:26.198Z,101878.63
2023-04-02T03:45:05.604Z,101879.72
2023-04-02T03:47:40.914Z,101880.78
2023-04-02T03:50:11.302Z,101884.63
2023-04-02T03:52:38.703Z,101890.59
2023-04-02T03:55:19.366Z,101895.16
2023-04-02T03:58:07.409Z,101907.47
2023-04-02T04:00:49.590Z,101904.13
2023-04-02T04:03:39.901Z,101916.91
2023-04-02T04:06:12.156Z,101925.06
2023-04-02T04:08:46.887Z,101920.03
2023-04-02T04:11:20.197Z,101932.22
2023-04-02T04:13:56.291Z,101936.53
2023-04-02T04:16:30.021Z,101948.25
2023-04-02T04:19:06.981Z,101956.53
2023-04-02T04:21:39.958Z,101951.63
2023-04-02T04:24:17.313Z,101952.81
2023-04-02T04:26:43.754Z,101972.19
2023-04-02T04:29:47.113Z,101974.81
2023-04-02T04:32:32.086Z,101978.63
2023-04-02T04:35:06.251Z,101976.00
2023-04-02T04:37:39.551Z,101991.31
2023-04-02T04:40:17.314Z,102000.28
2023-04-02T04:42:45.745Z,102002.66
2023-04-02T04:45:29.033Z,102008.97
2023-04-02T04:48:04.325Z,102008.97
2023-04-02T04:50:52.230Z,102021.31
2023-04-02T04:53:24.907Z,102023.09
2023-04-02T04:56:15.958Z,102032.06
2023-04-02T04:58:59.044Z,102031.19
2023-04-02T05:01:45.891Z,102042.06
2023-04-02T05:04:19.981Z,102053.97
2023-04-02T05:06:54.440Z,102055.03
2023-04-02T05:09:41.384Z,102060.03
2023-04-02T05:12:16.993Z,102066.44
2023-04-02T05:15:08.324Z,102090.09
2023-04-02T05:17:48.783Z,102090.13
2023-04-02T05:20:25.681Z,102088.38
2023-04-02T05:22:58.180Z,102101.34
2023-04-02T05:25:29.964Z,102108.94
2023-04-02T05:28:11.408Z,102113.66
2023-04-02T05:31:05.920Z,102119.22
2023-04-02T05:33:37.173Z,102121.34
2023-04-02T05:36:26.386Z,102132.16
2023-04-02T05:38:54.085Z,102141.94
2023-04-02T05:41:36.938Z,102142.38
2023-04-02T05:44:21.347Z,102149.41
2023-04-02T05:46:54.311Z,102149.81
2023-04-02T05:49:25.632Z,102159.59
2023-04-02T05:51:57.589Z,102170.28
2023-04-02T05:54:30.693Z,102172.47
2023-04-02T05:57:23.125Z,102186.31
2023-04-02T05:59:57.873Z,102187.19
2023-04-02T06:02:39.404Z,102185.78
2023-04-02T06:05:12.916Z,102196.41
2023-04-02T06:07:56.115Z,102205.63
2023-04-02T06:10:33.391Z,102221.97
2023-04-02T06:13:07.576Z,102226.28
2023-04-02T06:15:36.846Z,102226.28
2023-04-02T06:18:13.698Z,102232.91
2023-04-02T06:20:40.427Z,102245.09
2023-04-02T06:23:19.511Z,102245.91
2023-04-02T06:25:51.185Z,102254.63
2023-04-02T06:28:24.771Z,102263.97
2023-04-02T06:30:54.663Z,102263.03
2023-04-02T06:33:21.467Z,102269.97
2023-04-02T06:35:51.228Z,102269.13
2023-04-02T06:38:23.593Z,102281.81
2023-04-02T06:40:59.907Z,102279.19
2023-04-02T06:43:42.109Z,102280.13
2023-04-02T06:46:24.965Z,102288.47
2023-04-02T06:48:56.684Z,102293.59
2023-04-02T06:51:25.943Z,102296.88
2023-04-02T06:53:53.309Z,102300.63
2023-04-02T06:56:39.242Z,102288.88
2023-04-02T06:59:07.469Z,102317.66
2023-04-02T07:01:40.608Z,102313.56
2023-04-02T07:04:07.706Z,102331.66
2023-04-02T07:06:34.291Z,102327.13
2023-04-02T07:09:01.100Z,102334.28
2023-04-02T07:11:27.612Z,102344.78
2023-04-02T07:13:54.139Z,102342.22
2023-04-02T07:16:25.358Z,102352.66
2023-04-02T07:18:55.339Z,102352.97
2023-04-02T07:21:22.412Z,102370.09
2023-04-02T07:23:48.892Z,102369.00
2023-04-02T07:26:22.299Z,102376.41
2023-04-02T07:28:49.433Z,102375.66
2023-04-02T07:31:25.799Z,102396.06
2023-04-02T07:33:54.577Z,102401.59
2023-04-02T07:36:23.621Z,102397.94
2023-04-02T07:38:50.532Z,102405.47
2023-04-02T07:41:17.618Z,102408.94
2023-04-02T07:43:44.200Z,102408.66
2023-04-02T07:46:12.260Z,102418.50
2023-04-02T07:48:40.363Z,102428.38
2023-04-02T07:51:25.074Z,102422.72
2023-04-02T07:53:55.627Z,102429.72
2023-04-02T07:56:24.114Z,102427.22
2023-04-02T07:58:50.647Z,102420.50
2023-04-02T08:01:24.453Z,102428.69
2023-04-02T08:03:54.201Z,102439.75
2023-04-02T08:06:21.315Z,102437.19
2023-04-02T08:08:47.839Z,102446.69
2023-04-02T08:11:14.596Z,102447.63
2023-04-02T08:13:41.402Z,102448.56
2023-04-02T08:16:08.572Z,102455.59
2023-04-02T08:18:36.042Z,102458.22
2023-04-02T08:21:03.280Z,102471.06
2023-04-02T08:23:29.851Z,102461.56
2023-04-02T08:25:56.588Z,102473.03
2023-04-02T08:28:23.072Z,102479.69
2023-04-02T08:30:50.269Z,102481.50
2023-04-02T08:33:18.053Z,102491.47
2023-04-02T08:35:49.212Z,102499.06
2023-04-02T08:38:17.810Z,102496.72
2023-04-02T08:40:48.368Z,102502.38
2023-04-02T08:43:18.609Z,102509.59
2023-04-02T08:46:08.355Z,102515.91
2023-04-02T08:48:40.224Z,102510.75
2023-04-02T08:51:17.316Z,102521.91
2023-04-02T08:53:43.847Z,102523.59
2023-04-02T08:56:20.140Z,102533.78
2023-04-02T08:59:16.854Z,102532.09
2023-04-02T09:01:56.681Z,102546.28
2023-04-02T09:04:26.007Z,102548.72
2023-04-02T09:06:56.140Z,102546.59
2023-04-02T09:09:23.803Z,102546.59
2023-04-02T09:12:04.275Z,102545.34
2023-04-02T09:14:36.777Z,102559.13
2023-04-02T09:17:03.966Z,102561.88
2023-04-02T09:19:38.446Z,102572.25
2023-04-02T09:22:30.173Z,102577.19
2023-04-02T09:24:58.904Z,102570.38
2023-04-02T09:27:34.514Z,102577.59
2023-04-02T09:30:10.678Z,102587.38
2023-04-02T09:32:58.676Z,102591.19
2023-04-02T09:35:28.586Z,102602.84
2023-04-02T09:38:07.190Z,102603.47
2023-04-02T09:40:42.260Z,102602.72
2023-04-02T09:43:12.904Z,102608.94
2023-04-02T09:45:41.528Z,102609.53
2023-04-02T09:48:58.342Z,102604.69
2023-04-02T09:51:31.849Z,102606.59
2023-04-02T09:54:04.496Z,102611.63
2023-04-02T09:56:35.859Z,102598.91
2023-04-02T09:59:04.417Z,102605.78
2023-04-02T10:01:34.199Z,102618.84
2023-04-02T10:04:03.542Z,102614.44
2023-04-02T10:06:31.366Z,102620.56
2023-04-02T10:08:58.212Z,102621.00
2023-04-02T10:11:43.800Z,102628.94
2023-04-02T10:14:23.854Z,102627.13
2023-04-02T10:16:53.789Z,102630.19
2023-04-02T10:19:23.304Z,102631.13
2023-04-02T10:21:50.557Z,102624.22
2023-04-02T10:24:17.977Z,102623.03
2023-04-02T10:26:56.283Z,102635.97
2023-04-02T10:29:31.897Z,102630.00
2023-04-02T10:32:05.159Z,102623.31
2023-04-02T10:34:43.103Z,102629.47
2023-04-02T10:37:25.480Z,102617.53
2023-04-02T10:40:11.441Z,102633.41
2023-04-02T10:42:55.647Z,102637.66
2023-04-02T10:45:40.680Z,102642.56
2023-04-02T10:48:25.451Z,102638.22
2023-04-02T10:51:06.759Z,102634.88
2023-04-02T10:53:45.953Z,102637.97
2023-04-02T10:56:14.006Z,102635.56
2023-04-02T10:59:08.872Z,102635.78
2023-04-02T11:01:36.997Z,102635.78
2023-04-02T11:04:15.509Z,102641.88
2023-04-02T11:06:46.924Z,102652.34
2023-04-02T11:09:18.990Z,102651.38
2023-04-02T11:11:49.031Z,102655.44
2023-04-02T11:14:29.813Z,102662.13
2023-04-02T11:16:59.096Z,102658.34
2023-04-02T11:19:27.004Z,102665.69
2023-04-02T11:22:11.970Z,102666.19
2023-04-02T11:24:49.706Z,102659.06
2023-04-02T11:27:24.497Z,102660.91
2023-04-02T11:30:22.593Z,102667.75
2023-04-02T11:32:50.261Z,102673.53
2023-04-02T11:35:31.858Z,102686.22
2023-04-02T11:38:06.349Z,102683.19
2023-04-02T11:40:56.035Z,102686.75
2023-04-02T11:43:35.279Z,102686.88
2023-04-02T11:46:30.759Z,102686.69
2023-04-02T11:49:33.021Z,102697.25
2023-04-02T11:52:10.953Z,102684.78
2023-04-02T11:54:38.916Z,102688.09
2023-04-02T11:57:28.265Z,102694.41
2023-04-02T12:00:18.197Z,102693.91
2023-04-02T12:03:03.490Z,102695.25
2023-04-02T12:05:43.146Z,102697.56
2023-04-02T12:08:24.037Z,102703.88
2023-04-02T12:10:54.252Z,102697.44
2023-04-02T12:13:39.357Z,102705.13
2023-04-02T12:16:10.994Z,102693.72
2023-04-02T12:18:44.276Z,102706.19
2023-04-02T12:21:19.243Z,102712.75
2023-04-02T12:23:48.081Z,102714.03
2023-04-02T12:26:42.857Z,102725.47
2023-04-02T12:29:29.068Z,102732.19
2023-04-02T12:31:57.566Z,102724.03
2023-04-02T12:34:29.879Z,102715.69
2023-04-02T12:37:02.815Z,102721.28
2023-04-02T12:39:33.785Z,102726.22
2023-04-02T12:42:00.451Z,102719.34
2023-04-02T12:44:29.344Z,102722.09
2023-04-02T12:46:57.193Z,102731.28
2023-04-02T12:49:42.002Z,102735.19
2023-04-02T12:52:17.867Z,102737.88
2023-04-02T12:54:51.308Z,102735.94
2023-04-02T12:57:30.225Z,102734.03
2023-04-02T12:59:59.893Z,102746.38
2023-04-02T13:02:29.339Z,102745.66
2023-04-02T13:05:01.472Z,102745.06
2023-04-02T13:07:33.464Z,102744.22
2023-04-02T13:10:03.372Z,102744.44
2023-04-02T13:12:34.171Z,102756.00
2023-04-02T13:15:03.266Z,102752.22
2023-04-02T13:17:42.578Z,102745.63
2023-04-02T13:20:32.589Z,102747.88
2023-04-02T13:23:00.776Z,102751.09
2023-04-02T13:25:35.211Z,102759.63
2023-04-02T13:28:02.646Z,102738.09
2023-04-02T13:30:29.282Z,102756.00
2023-04-02T13:32:56.432Z,102757.56
2023-04-02T13:35:22.995Z,102755.31
2023-04-02T13:37:49.626Z,102756.00
2023-04-02T13:40:18.177Z,102756.28
2023-04-02T13:42:45.706Z,102765.22
2023-04-02T13:45:37.881Z,102753.34
2023-04-02T13:48:05.827Z,102765.50
2023-04-02T13:50:34.684Z,102764.25
2023-04-02T13:53:09.036Z,102768.47
2023-04-02T13:55:40.652Z,102765.53
2023-04-02T13:58:07.569Z,102759.66
2023-04-02T14:00:37.500Z,102761.06
2023-04-02T14:03:10.017Z,102770.59
2023-04-02T14:05:55.053Z,102771.72
2023-04-02T14:08:59.109Z,102780.66
2023-04-02T14:11:39.772Z,102763.69
2023-04-02T14:14:12.089Z,102764.63
2023-04-02T14:17:06.811Z,102775.78
2023-04-02T14:19:58.009Z,102774.09
2023-04-02T14:22:50.318Z,102773.53
2023-04-02T14:25:31.134Z,102777.09
2023-04-02T14:28:06.744Z,102785.50
2023-04-02T14:30:56.552Z,102794.97
2023-04-02T14:33:39.882Z,102778.47
2023-04-02T14:36:37.070Z,102790.44
2023-04-02T14:39:37.370Z,102785.91
2023-04-02T14:42:13.769Z,102776.91
2023-04-02T14:44:50.915Z,102792.69
2023-04-02T14:47:29.499Z,102803.63
2023-04-02T14:50:02.864Z,102796.63
2023-04-02T14:52:33.347Z,102799.66
2023-04-02T14:55:04.242Z,102808.22
2023-04-02T14:57:36.110Z,102806.47
2023-04-02T15:00:03.166Z,102806.44
2023-04-02T15:02:51.591Z,102805.63
2023-04-02T15:05:28.067Z,102811.03
2023-04-02T15:08:03.477Z,102803.09
2023-04-02T15:10:32.516Z,102799.91
2023-04-02T15:13:04.255Z,102805.66
2023-04-02T15:15:52.357Z,102815.06
2023-04-02T15:18:18.883Z,102813.06
2023-04-02T15:20:57.282Z,102820.78
2023-04-02T15:23:36.846Z,102816.09
2023-04-02T15:26:24.321Z,102818.28
2023-04-02T15:29:28.397Z,102814.78
2023-04-02T15:32:05.971Z,102807.75
2023-04-02T15:34:44.841Z,102816.06
2023-04-02T15:37:28.677Z,102815.38
2023-04-02T15:40:19.406Z,102809.97
2023-04-02T15:43:10.422Z,102822.38
2023-04-02T15:45:45.379Z,102814.47
2023-04-02T15:48:29.075Z,102816.28
2023-04-02T15:51:21.180Z,102830.97
2023-04-02T15:54:00.356Z,102819.03
2023-04-02T15:56:48.527Z,102816.84
2023-04-02T15:59:27.026Z,102827.28
2023-04-02T16:02:16.728Z,102808.81
2023-04-02T16:05:00.649Z,102815.75
2023-04-02T16:07:48.624Z,102813.63
2023-04-02T16:10:40.081Z,102810.47
2023-04-02T16:13:17.904Z,102823.59
2023-04-02T16:15:53.720Z,102823.66
2023-04-02T16:18:47.836Z,102831.22
2023-04-02T16:21:29.234Z,102839.56
2023-04-02T16:23:55.910Z,102829.19
2023-04-02T16:26:34.709Z,102835.88
2023-04-02T16:29:07.147Z,102837.59
2023-04-02T16:31:48.961Z,102828.88
2023-04-02T16:34:42.196Z,102831.44
2023-04-02T16:37:17.809Z,102850.34
2023-04-02T16:39:59.591Z,102844.13
2023-04-02T16:42:43.208Z,102851.72
2023-04-02T16:45:17.987Z,102860.72
2023-04-02T16:48:03.947Z,102863.88
2023-04-02T16:50:45.871Z,102866.03
2023-04-02T16:53:47.857Z,102861.63
2023-04-02T16:56:45.991Z,102873.25
2023-04-02T16:59:50.363Z,102882.38
2023-04-02T17:02:51.602Z,102882.47
2023-04-02T17:05:41.054Z,102897.19
2023-04-02T17:08:16.408Z,102894.72
2023-04-02T17:10:51.599Z,102925.06
2023-04-02T17:13:24.947Z,102920.94
2023-04-02T17:16:03.964Z,102936.38
2023-04-02T17:18:32.892Z,102930.81
2023-04-02T17:21:05.462Z,102938.97
2023-04-02T17:23:55.198Z,102930.75
2023-04-02T17:26:27.488Z,102938.75
2023-04-02T17:28:57.333Z,102941.88
2023-04-02T17:31:30.909Z,102945.69
2023-04-02T17:33:57.506Z,102947.97
2023-04-02T17:36:38.853Z,102957.22
2023-04-02T17:39:08.417Z,102955.34
2023-04-02T17:41:51.309Z,102968.63
2023-04-02T17:44:57.664Z,102971.41
2023-04-02T17:47:40.423Z,102966.88
2023-04-02T17:50:31.449Z,102988.13
2023-04-02T17:52:59.982Z,102988.59
2023-04-02T17:55:40.447Z,102989.94
2023-04-02T17:58:40.176Z,102992.13
2023-04-02T18:01:13.280Z,102990.25
2023-04-02T18:03:49.352Z,103006.81
2023-04-02T18:06:38.096Z,103010.09
2023-04-02T18:09:21.795Z,103019.72
2023-04-02T18:12:03.994Z,103027.91
2023-04-02T18:14:42.981Z,103026.69
2023-04-02T18:17:40.659Z,103029.31
2023-04-02T18:20:31.295Z,103034.63
2023-04-02T18:23:16.510Z,103035.19
2023-04-02T18:25:54.094Z,103039.13
2023-04-02T18:28:39.324Z,103046.91
2023-04-02T18:31:16.647Z,103042.28
2023-04-02T18:34:09.739Z,103045.84
2023-04-02T18:37:00.992Z,103053.50
2023-04-02T18:39:40.002Z,103057.22
2023-04-02T18:42:06.449Z,103067.44
2023-04-02T18:44:58.427Z,103072.19
2023-04-02T18:47:35.045Z,103064.81
2023-04-02T18:50:24.609Z,103075.63
2023-04-02T18:52:51.225Z,103071.84
2023-04-02T18:55:21.692Z,103087.94
2023-04-02T18:57:51.489Z,103080.53
2023-04-02T19:00:36.631Z,103093.97
2023-04-02T19:03:24.629Z,103091.75
2023-04-02T19:06:00.914Z,103095.28
2023-04-02T19:08:27.343Z,103108.47
2023-04-02T19:11:16.540Z,103114.63
2023-04-02T19:13:45.008Z,103117.47
2023-04-02T19:16:48.512Z,103124.78
2023-04-02T19:19:28.012Z,103124.03
2023-04-02T19:22:45.116Z,103137.66
2023-04-02T19:25:18.668Z,103141.69
2023-04-02T19:28:01.962Z,103150.66
2023-04-02T19:30:39.103Z,103149.16
2023-04-02T19:33:33.240Z,103148.53
2023-04-02T19:36:08.365Z,103146.09
2023-04-02T19:38:50.307Z,103154.44
2023-04-02T19:41:37.534Z,103144.16
2023-04-02T19:44:09.468Z,103152.31
2023-04-02T19:46:37.902Z,103155.47
2023-04-02T19:49:28.368Z,103160.31
2023-04-02T19:51:55.739Z,103166.63
2023-04-02T19:54:22.830Z,103163.03
2023-04-02T19:56:49.490Z,103166.41
2023-04-02T19:59:18.546Z,103164.06
2023-04-02T20:01:46.347Z,103173.47
2023-04-02T20:04:13.244Z,103169.25
2023-04-02T20:06:39.855Z,103176.97
2023-04-02T20:09:08.077Z,103176.84
2023-04-02T20:11:36.093Z,103169.06
2023-04-02T20:14:03.241Z,103177.16
2023-04-02T20:16:29.781Z,103176.50
2023-04-02T20:18:56.601Z,103178.50
2023-04-02T20:21:23.080Z,103171.06
2023-04-02T20:23:53.463Z,103178.56
2023-04-02T20:26:19.889Z,103188.03
2023-04-02T20:28:46.560Z,103193.84
2023-04-02T20:31:16.119Z,103196.84
2023-04-02T20:33:44.213Z,103187.34
2023-04-02T20:36:15.889Z,103207.69
2023-04-02T20:38:43.373Z,103208.44
2023-04-02T20:41:10.309Z,103207.84
2023-04-02T20:43:37.571Z,103206.47
2023-04-02T20:46:05.833Z,103220.38
2023-04-02T20:48:34.290Z,103232.25
2023-04-02T20:51:02.295Z,103223.03
2023-04-02T20:53:29.997Z,103237.91
2023-04-02T20:56:10.886Z,103227.00
2023-04-02T20:58:38.579Z,103232.66
2023-04-02T21:01:10.629Z,103233.03
2023-04-02T21:03:37.324Z,103236.22
2023-04-02T21:06:04.153Z,103240.75
2023-04-02T21:08:30.775Z,103244.50
2023-04-02T21:11:05.345Z,103250.97
2023-04-02T21:13:33.266Z,103255.59
2023-04-02T21:16:00.169Z,103252.22
2023-04-02T21:18:26.766Z,103267.25
2023-04-02T21:21:01.724Z,103252.75
2023-04-02T21:23:28.827Z,103254.06
2023-04-02T21:26:06.331Z,103262.81
2023-04-02T21:28:34.310Z,103272.69
2023-04-02T21:31:05.570Z,103272.84
2023-04-02T21:33:35.669Z,103262.69
2023-04-02T21:36:09.505Z,103271.53
2023-04-02T21:38:36.593Z,103271.69
2023-04-02T21:41:20.040Z,103281.47
2023-04-02T21:43:48.305Z,103275.81
2023-04-02T21:46:20.248Z,103270.72
2023-04-02T21:48:48.287Z,103279.72
2023-04-02T21:51:17.519Z,103276.50
2023-04-02T21:53:45.489Z,103283.06
2023-04-02T21:56:18.074Z,103287.56
2023-04-02T21:58:46.052Z,103292.81
2023-04-02T22:01:23.815Z,103288.44
2023-04-02T22:03:53.762Z,103289.59
2023-04-02T22:06:21.868Z,103286.13
2023-04-02T22:08:54.442Z,103282.22
2023-04-02T22:11:24.222Z,103283.16
2023-04-02T22:13:51.859Z,103290.28
2023-04-02T22:16:23.888Z,103281.06
2023-04-02T22:18:52.655Z,103279.69
2023-04-02T22:21:20.299Z,103287.84
2023-04-02T22:23:47.855Z,103299.53
2023-04-02T22:26:16.242Z,103293.69
2023-04-02T22:28:43.473Z,103298.94
2023-04-02T22:31:14.315Z,103295.72
2023-04-02T22:33:41.456Z,103286.41
2023-04-02T22:36:08.562Z,103284.94
2023-04-02T22:38:36.272Z,103291.13
2023-04-02T22:41:11.878Z,103294.78
2023-04-02T22:43:39.541Z,103295.06
2023-04-02T22:46:08.310Z,103295.56
2023-04-02T22:48:35.587Z,103293.09
2023-04-02T22:51:02.352Z,103305.53
2023-04-02T22:53:29.225Z,103303.81
2023-04-02T22:55:55.784Z,103297.75
2023-04-02T22:58:22.645Z,103312.81
2023-04-02T23:00:49.124Z,103311.25
2023-04-02T23:03:15.606Z,103310.81
2023-04-02T23:05:42.588Z,103317.88
2023-04-02T23:08:09.423Z,103307.59
2023-04-02T23:10:36.582Z,103319.13
2023-04-02T23:13:03.709Z,103308.16
2023-04-02T23:15:30.496Z,103311.88
2023-04-02T23:17:57.046Z,103311.00
2023-04-02T23:20:23.553Z,103313.00
2023-04-02T23:22:50.074Z,103312.50
2023-04-02T23:25:16.674Z,103316.06
2023-04-02T23:27:43.153Z,103312.97
2023-04-02T23:30:09.854Z,103312.97
2023-04-02T23:32:36.368Z,103314.81
2023-04-02T23:35:02.941Z,103327.00
2023-04-02T23:37:29.435Z,103320.75
2023-04-02T23:39:55.865Z,103328.47
2023-04-02T23:42:22.405Z,103322.59
2023-04-02T23:44:48.890Z,103324.22
2023-04-02T23:47:15.481Z,103328.00
2023-04-02T23:49:47.504Z,103329.78
2023-04-02T23:52:15.402Z,103326.31
2023-04-02T23:54:41.889Z,103324.53
2023-04-02T23:57:08.488Z,103326.41
2023-04-02T23:59:35.578Z,103326.41
